| time (UTC) | temp F | wind direction | speed MPH | gust MPH | rain 1hr in | rain 24hr in | rain mn in | humidity % | barometer mb |
| 20260906212959 | 67 | 259 | 0.0 | 0.0 | 0.00 | 0.02 | 0.01 | 65 | 1013.7 |
| 20260906211458 | 67 | 260 | 0.0 | 0.0 | 0.00 | 0.02 | 0.01 | 63 | 1013.8 |
| 20260906204457 | 64 | 260 | 0.0 | 0.0 | 0.00 | 0.02 | 0.01 | 63 | 1014.4 |
| 20260906202959 | 63 | 261 | 0.0 | 0.0 | 0.00 | 0.02 | 0.01 | 71 | 1014.6 |
| 20260906201503 | 62 | 244 | 0.0 | 0.0 | 0.00 | 0.02 | 0.01 | 74 | 1014.9 |
| 20260906194459 | 60 | 244 | 0.0 | 0.0 | 0.00 | 0.03 | 0.01 | 81 | 1015.6 |
| 20260906181508 | 54 | 145 | 0.0 | 0.0 | 0.00 | 0.03 | 0.01 | 97 | 1017.3 |
| 20260906180005 | 52 | 145 | 0.0 | 0.0 | 0.00 | 0.03 | 0.01 | 96 | 1017.4 |
| 20260906174459 | 51 | 145 | 0.0 | 0.0 | 0.00 | 0.03 | 0.01 | 96 | 1017.8 |
| 20260906172959 | 51 | 145 | 0.0 | 0.0 | 0.00 | 0.03 | 0.01 | 97 | 1018.0 |
| 20260906171458 | 51 | 145 | 0.0 | 0.0 | 0.00 | 0.03 | 0.01 | 96 | 1018.3 |
| 20260906170002 | 49 | 145 | 0.0 | 0.0 | 0.00 | 0.03 | 0.01 | 96 | 1018.6 |
| 20260906164459 | 49 | 145 | 0.0 | 0.0 | 0.00 | 0.03 | 0.01 | 96 | 1018.9 |
| 20260906161458 | 47 | 145 | 0.0 | 0.0 | 0.00 | 0.03 | 0.01 | 96 | 1019.5 |
| 20260906160002 | 46 | 145 | 0.0 | 0.0 | 0.00 | 0.03 | 0.01 | 96 | 1019.5 |
| 20260906154459 | 46 | 145 | 0.0 | 0.0 | 0.00 | 0.03 | 0.01 | 96 | 1019.6 |
| 20260906152959 | 46 | 145 | 0.0 | 0.0 | 0.00 | 0.03 | 0.01 | 96 | 1019.8 |
| 20260906151458 | 45 | 144 | 0.0 | 0.0 | 0.00 | 0.03 | 0.01 | 95 | 1019.9 |
| 20260906150002 | 45 | 144 | 0.0 | 0.0 | 0.00 | 0.03 | 0.01 | 95 | 1020.0 |
| 20260906142958 | 45 | 144 | 0.0 | 0.0 | 0.00 | 0.03 | 0.01 | 95 | 1019.9 |
| 20260906141458 | 45 | 144 | 0.0 | 0.0 | 0.00 | 0.03 | 0.01 | 95 | 1019.7 |
| 20260906140001 | 45 | 144 | 0.0 | 0.0 | 0.00 | 0.03 | 0.01 | 95 | 1019.6 |
| 20260906134459 | 45 | 144 | 0.0 | 0.0 | 0.00 | 0.04 | 0.01 | 95 | 1019.6 |
| 20260906132958 | 45 | 143 | 0.0 | 0.0 | 0.00 | 0.04 | 0.01 | 95 | 1019.4 |
| 20260906124459 | 45 | 143 | 0.0 | 0.0 | 0.00 | 0.04 | 0.01 | 95 | 1019.6 |
| 20260906122958 | 45 | 143 | 0.0 | 0.0 | 0.00 | 0.04 | 0.01 | 95 | 1019.5 |
| 20260906121458 | 45 | 143 | 0.0 | 0.0 | 0.00 | 0.04 | 0.01 | 95 | 1019.5 |
| 20260906120005 | 46 | 53 | 0.0 | 0.0 | 0.00 | 0.04 | 0.01 | 95 | 1019.4 |
| 20260906114459 | 46 | 53 | 0.0 | 0.0 | 0.00 | 0.04 | 0.01 | 95 | 1019.2 |
| 20260906110001 | 46 | 53 | 0.0 | 0.0 | 0.01 | 0.04 | 0.01 | 94 | 1019.2 |
| 20260906104459 | 46 | 53 | 0.0 | 0.0 | 0.01 | 0.05 | 0.01 | 95 | 1019.3 |
| 20260906102958 | 47 | 53 | 0.0 | 0.0 | 0.01 | 0.05 | 0.01 | 95 | 1019.4 |
| 20260906101458 | 47 | 53 | 0.0 | 0.0 | 0.01 | 0.05 | 0.01 | 94 | 1019.4 |
| 20260906094458 | 47 | 53 | 0.0 | 0.0 | 0.00 | 0.04 | 0.00 | 95 | 1019.5 |
| 20260906092959 | 47 | 53 | 0.0 | 0.0 | 0.00 | 0.04 | 0.00 | 95 | 1019.5 |
| 20260906091458 | 47 | 53 | 0.0 | 0.0 | 0.00 | 0.04 | 0.00 | 94 | 1019.6 |
| 20260906090000 | 47 | 53 | 0.0 | 0.0 | 0.00 | 0.04 | 0.00 | 94 | 1019.5 |
| 20260906084501 | 48 | 53 | 0.0 | 0.0 | 0.00 | 0.04 | 0.00 | 94 | 1019.4 |
| 20260906082959 | 48 | 53 | 0.0 | 0.0 | 0.00 | 0.04 | 0.00 | 94 | 1019.2 |
| 20260906081458 | 48 | 53 | 0.0 | 0.0 | 0.00 | 0.04 | 0.00 | 94 | 1019.3 |
| 20260906080001 | 48 | 53 | 0.0 | 0.0 | 0.00 | 0.04 | 0.00 | 94 | 1019.4 |
| 20260906074501 | 48 | 53 | 0.0 | 0.0 | 0.00 | 0.04 | 0.00 | 94 | 1019.2 |
| 20260906073001 | 49 | 53 | 0.0 | 0.0 | 0.00 | 0.04 | 0.00 | 94 | 1019.1 |
| 20260906071459 | 49 | 53 | 0.0 | 0.0 | 0.00 | 0.04 | 0.00 | 94 | 1019.1 |
| 20260906070003 | 49 | 53 | 0.0 | 0.0 | 0.00 | 0.04 | 0.00 | 94 | 1019.1 |
| 20260906064500 | 49 | 53 | 0.0 | 0.0 | 0.00 | 0.04 | 0.04 | 94 | 1019.2 |
| 20260906063001 | 49 | 53 | 0.0 | 0.0 | 0.00 | 0.04 | 0.04 | 94 | 1019.1 |
| 20260906060001 | 50 | 53 | 0.0 | 0.0 | 0.00 | 0.04 | 0.04 | 94 | 1018.8 |
| 20260906054500 | 50 | 53 | 0.0 | 0.0 | 0.00 | 0.04 | 0.04 | 93 | 1018.9 |
| 20260906050001 | 51 | 53 | 0.0 | 0.0 | 0.01 | 0.04 | 0.04 | 93 | 1018.6 |
| 20260906044500 | 51 | 52 | 0.0 | 0.0 | 0.01 | 0.05 | 0.04 | 93 | 1018.6 |
| 20260906040003 | 53 | 59 | 0.0 | 0.0 | 0.00 | 0.04 | 0.03 | 91 | 1018.1 |
| 20260906032959 | 55 | 53 | 0.0 | 0.0 | 0.00 | 0.05 | 0.03 | 90 | 1017.8 |
| 20260906031458 | 56 | 53 | 0.0 | 0.0 | 0.00 | 0.05 | 0.03 | 90 | 1017.6 |
| 20260906030002 | 56 | 55 | 0.0 | 0.0 | 0.00 | 0.05 | 0.03 | 89 | 1017.7 |
| 20260906024502 | 57 | 51 | 0.0 | 0.0 | 0.00 | 0.05 | 0.03 | 87 | 1017.7 |
| 20260906023000 | 59 | 60 | 0.0 | 0.0 | 0.00 | 0.05 | 0.03 | 81 | 1017.6 |
| 20260906021459 | 63 | 300 | 0.0 | 0.0 | 0.00 | 0.05 | 0.03 | 72 | 1017.1 |
| 20260906014501 | 67 | 232 | 0.0 | 0.0 | 0.00 | 0.05 | 0.03 | 63 | 1016.5 |
| 20260906012959 | 68 | 232 | 0.0 | 0.0 | 0.00 | 0.05 | 0.03 | 60 | 1016.4 |
| 20260906011500 | 68 | 232 | 0.0 | 0.0 | 0.00 | 0.05 | 0.03 | 61 | 1016.1 |
| 20260906010003 | 68 | 232 | 0.0 | 0.0 | 0.00 | 0.05 | 0.03 | 66 | 1016.0 |
| 20260906004458 | 68 | 232 | 0.0 | 0.0 | 0.00 | 0.06 | 0.03 | 66 | 1016.0 |
| 20260906002958 | 68 | 232 | 0.0 | 0.0 | 0.00 | 0.06 | 0.03 | 63 | 1015.9 |
| 20260906001459 | 68 | 232 | 0.0 | 0.0 | 0.00 | 0.06 | 0.03 | 63 | 1015.9 |
| 20260906000002 | 68 | 225 | 0.0 | 0.0 | 0.00 | 0.06 | 0.03 | 63 | 1016.0 |
| 20260905234458 | 66 | 225 | 0.0 | 0.0 | 0.00 | 0.06 | 0.03 | 67 | 1016.2 |
| 20260905231459 | 66 | 182 | 0.0 | 0.0 | 0.00 | 0.06 | 0.03 | 61 | 1016.0 |
| 20260905230005 | 66 | 182 | 0.0 | 0.0 | 0.00 | 0.06 | 0.03 | 65 | 1016.3 |
| 20260905224500 | 66 | 182 | 0.0 | 0.0 | 0.00 | 0.06 | 0.03 | 65 | 1016.4 |
| 20260905223000 | 65 | 260 | 0.0 | 0.0 | 0.01 | 0.06 | 0.03 | 64 | 1016.5 |
| 20260905221501 | 65 | 260 | 0.0 | 0.0 | 0.01 | 0.06 | 0.03 | 65 | 1016.7 |
| 20260905220004 | 64 | 260 | 0.0 | 0.0 | 0.01 | 0.06 | 0.03 | 73 | 1016.8 |
| 20260905214500 | 63 | 265 | 0.0 | 0.0 | 0.01 | 0.08 | 0.03 | 68 | 1017.0 |